createdAt,value
2017-07-06T00:01:54.893Z,17.45
2017-07-06T00:04:22.426Z,16.65
2017-07-06T00:06:50.211Z,15.77
2017-07-06T00:09:17.722Z,14.27
2017-07-06T00:11:46.004Z,15.50
2017-07-06T00:14:13.540Z,16.15
2017-07-06T00:16:41.883Z,17.30
2017-07-06T00:19:09.546Z,16.17
2017-07-06T00:21:37.057Z,15.98
2017-07-06T00:24:04.627Z,16.00
2017-07-06T00:26:32.187Z,15.35
2017-07-06T00:28:59.737Z,17.27
2017-07-06T00:31:27.550Z,16.15
2017-07-06T00:33:55.069Z,16.20
2017-07-06T00:36:22.654Z,16.87
2017-07-06T00:38:51.416Z,17.20
2017-07-06T00:41:18.973Z,16.45
2017-07-06T00:43:46.489Z,16.00
2017-07-06T00:46:14.813Z,15.25
2017-07-06T00:48:42.411Z,15.00
2017-07-06T00:51:10.279Z,13.23
2017-07-06T00:53:38.621Z,13.02
2017-07-06T00:56:06.166Z,15.10
2017-07-06T00:58:33.701Z,14.80
2017-07-06T01:01:02.144Z,15.00
2017-07-06T01:03:29.684Z,15.18
2017-07-06T01:05:57.284Z,15.40
2017-07-06T01:08:24.793Z,15.82
2017-07-06T01:10:52.373Z,16.25
2017-07-06T01:13:19.970Z,15.80
2017-07-06T01:15:47.571Z,16.80
2017-07-06T01:18:15.078Z,16.50
2017-07-06T01:20:42.584Z,16.02
2017-07-06T01:23:10.618Z,17.33
2017-07-06T01:25:38.125Z,16.58
2017-07-06T01:28:05.694Z,15.85
2017-07-06T01:30:33.993Z,16.87
2017-07-06T01:33:01.561Z,17.87
2017-07-06T01:35:29.537Z,19.35
2017-07-06T01:37:57.414Z,17.58
2017-07-06T01:40:25.030Z,17.33
2017-07-06T01:42:52.569Z,17.70
2017-07-06T01:45:20.866Z,18.70
2017-07-06T01:47:48.377Z,17.55
2017-07-06T01:50:15.970Z,18.35
2017-07-06T01:52:44.331Z,19.00
2017-07-06T01:55:11.860Z,18.40
2017-07-06T01:57:39.533Z,18.70
2017-07-06T02:00:07.381Z,18.52
2017-07-06T02:02:34.936Z,19.35
2017-07-06T02:05:02.449Z,18.75
2017-07-06T02:07:29.985Z,17.70
2017-07-06T02:09:58.294Z,19.67
2017-07-06T02:12:25.868Z,17.98
2017-07-06T02:14:53.382Z,17.80
2017-07-06T02:17:21.197Z,17.83
2017-07-06T02:19:48.717Z,18.98
2017-07-06T02:22:16.283Z,18.33
2017-07-06T02:24:44.022Z,19.77
2017-07-06T02:27:12.554Z,20.17
2017-07-06T02:29:40.155Z,18.30
2017-07-06T02:32:08.693Z,19.20
2017-07-06T02:34:36.248Z,19.80
2017-07-06T02:37:03.801Z,19.62
2017-07-06T02:39:31.330Z,17.75
2017-07-06T02:41:59.243Z,17.87
2017-07-06T02:44:27.108Z,18.23
2017-07-06T02:46:54.670Z,19.70
2017-07-06T02:49:22.233Z,19.08
2017-07-06T02:51:49.851Z,20.17
2017-07-06T02:54:17.408Z,18.80
2017-07-06T02:56:44.968Z,19.85
2017-07-06T02:59:12.477Z,19.10
2017-07-06T03:01:40.338Z,21.20
2017-07-06T03:04:07.878Z,20.05
2017-07-06T03:06:35.467Z,19.60
2017-07-06T03:09:03.838Z,19.95
2017-07-06T03:11:32.191Z,20.50
2017-07-06T03:13:59.738Z,20.45
2017-07-06T03:16:27.246Z,22.87
2017-07-06T03:18:54.788Z,23.73
2017-07-06T03:21:22.356Z,22.92
2017-07-06T03:23:50.713Z,23.15
2017-07-06T03:26:18.250Z,21.30
2017-07-06T03:28:46.101Z,19.52
2017-07-06T03:31:13.964Z,20.02
2017-07-06T03:33:41.498Z,26.77
2017-07-06T03:36:09.302Z,23.92
2017-07-06T03:38:36.853Z,28.35
2017-07-06T03:41:04.402Z,19.05
2017-07-06T03:43:31.918Z,17.37
2017-07-06T03:45:59.449Z,14.85
2017-07-06T03:48:26.986Z,16.45
2017-07-06T03:50:54.838Z,16.58
2017-07-06T03:53:22.413Z,17.15
2017-07-06T03:55:49.971Z,20.75
2017-07-06T03:58:17.505Z,21.50
2017-07-06T04:00:45.285Z,19.23
2017-07-06T04:03:12.821Z,17.92
2017-07-06T04:05:40.390Z,19.60
2017-07-06T04:08:07.957Z,17.17
2017-07-06T04:10:35.470Z,16.90
2017-07-06T04:13:03.020Z,16.27
2017-07-06T04:15:31.014Z,16.55
2017-07-06T04:17:58.596Z,16.45
2017-07-06T04:20:26.130Z,15.45
2017-07-06T04:22:53.650Z,14.48
2017-07-06T04:25:21.562Z,16.50
2017-07-06T04:27:49.074Z,15.43
2017-07-06T04:30:16.587Z,16.08
2017-07-06T04:32:44.191Z,15.32
2017-07-06T04:35:11.718Z,15.43
2017-07-06T04:37:39.315Z,14.57
2017-07-06T04:40:06.877Z,14.07
2017-07-06T04:42:34.770Z,14.05
2017-07-06T04:45:02.276Z,14.52
2017-07-06T04:47:30.558Z,14.05
2017-07-06T04:49:58.089Z,13.65
2017-07-06T04:52:25.598Z,14.13
2017-07-06T04:54:53.210Z,12.50
2017-07-06T04:57:20.821Z,13.35
2017-07-06T04:59:48.362Z,14.85
2017-07-06T05:02:16.323Z,13.60
2017-07-06T05:04:43.910Z,12.90
2017-07-06T05:07:11.510Z,12.80
2017-07-06T05:09:39.794Z,13.30
2017-07-06T05:12:08.122Z,13.15
2017-07-06T05:14:35.627Z,12.68
2017-07-06T05:17:03.180Z,13.25
2017-07-06T05:19:31.469Z,11.73
2017-07-06T05:21:59.032Z,12.55
2017-07-06T05:24:27.918Z,11.85
2017-07-06T05:26:55.481Z,12.00
2017-07-06T05:29:23.058Z,10.35
2017-07-06T05:31:50.865Z,9.68
2017-07-06T05:34:19.410Z,10.02
2017-07-06T05:36:46.946Z,9.75
2017-07-06T05:39:14.505Z,9.13
2017-07-06T05:41:42.348Z,9.20
2017-07-06T05:44:09.909Z,9.47
2017-07-06T05:46:37.446Z,9.27
2017-07-06T05:49:04.954Z,8.30
2017-07-06T05:51:32.529Z,9.60
2017-07-06T05:54:00.038Z,8.40
2017-07-06T05:56:27.573Z,8.87
2017-07-06T05:58:55.893Z,8.57
2017-07-06T06:01:23.777Z,8.70
2017-07-06T06:03:51.286Z,8.27
2017-07-06T06:06:18.845Z,7.90
2017-07-06T06:08:47.190Z,8.80
2017-07-06T06:11:14.752Z,7.53
2017-07-06T06:13:42.587Z,7.67
2017-07-06T06:16:10.378Z,8.13
2017-07-06T06:18:37.922Z,8.23
2017-07-06T06:21:05.430Z,8.23
2017-07-06T06:23:33.230Z,9.00
2017-07-06T06:26:00.793Z,8.90
2017-07-06T06:28:28.359Z,8.27
2017-07-06T06:30:55.921Z,8.00
2017-07-06T06:33:23.425Z,8.27
2017-07-06T06:35:50.984Z,9.30
2017-07-06T06:38:18.509Z,9.27
2017-07-06T06:40:46.149Z,9.53
2017-07-06T06:43:13.710Z,8.77
2017-07-06T06:45:41.281Z,9.07
2017-07-06T06:48:09.111Z,9.13
2017-07-06T06:50:36.620Z,9.07
2017-07-06T06:53:04.176Z,8.67
2017-07-06T06:55:32.467Z,9.50
2017-07-06T06:58:00.042Z,8.53
2017-07-06T07:00:27.545Z,9.00
2017-07-06T07:02:55.097Z,9.23
2017-07-06T07:05:22.609Z,9.40
2017-07-06T07:07:50.391Z,7.80
2017-07-06T07:10:17.974Z,8.17
2017-07-06T07:12:45.519Z,8.23
2017-07-06T07:15:13.058Z,8.53
2017-07-06T07:17:40.622Z,7.33
2017-07-06T07:20:08.158Z,8.40
2017-07-06T07:22:35.693Z,7.30
2017-07-06T07:25:04.335Z,7.90
2017-07-06T07:27:31.927Z,8.30
2017-07-06T07:30:00.203Z,6.87
2017-07-06T07:32:28.560Z,7.70
2017-07-06T07:34:56.067Z,8.67
2017-07-06T07:37:23.589Z,9.17
2017-07-06T07:39:51.879Z,6.93
2017-07-06T07:42:19.484Z,7.60
2017-07-06T07:44:46.998Z,7.33
2017-07-06T07:47:14.595Z,8.77
2017-07-06T07:49:42.108Z,8.27
2017-07-06T07:52:09.641Z,8.40
2017-07-06T07:54:37.213Z,8.40
2017-07-06T07:57:05.788Z,8.47
2017-07-06T07:59:34.318Z,7.40
2017-07-06T08:02:01.851Z,7.40
2017-07-06T08:04:29.424Z,6.80
2017-07-06T08:06:56.994Z,7.20
2017-07-06T08:09:24.578Z,8.98
2017-07-06T08:11:52.109Z,7.82
2017-07-06T08:14:19.630Z,7.63
2017-07-06T08:16:47.464Z,7.00
2017-07-06T08:19:15.007Z,6.93
2017-07-06T08:21:42.625Z,7.33
2017-07-06T08:24:10.143Z,7.97
2017-07-06T08:26:38.434Z,7.70
2017-07-06T08:29:06.734Z,7.70
2017-07-06T08:31:34.327Z,9.60
2017-07-06T08:34:01.833Z,8.20
2017-07-06T08:36:29.331Z,8.97
2017-07-06T08:38:57.187Z,6.90
2017-07-06T08:41:24.738Z,8.03
2017-07-06T08:43:52.367Z,7.30
2017-07-06T08:46:20.165Z,6.90
2017-07-06T08:48:47.697Z,7.60
2017-07-06T08:51:15.198Z,8.50
2017-07-06T08:53:42.830Z,7.50
2017-07-06T08:56:10.339Z,7.70
2017-07-06T08:58:38.661Z,8.17
2017-07-06T09:01:06.189Z,7.10
2017-07-06T09:03:33.690Z,8.40
2017-07-06T09:06:01.218Z,7.50
2017-07-06T09:08:28.721Z,8.17
2017-07-06T09:10:56.302Z,8.40
2017-07-06T09:13:24.625Z,8.67
2017-07-06T09:15:52.181Z,8.67
2017-07-06T09:18:19.702Z,7.80
2017-07-06T09:20:48.015Z,7.70
2017-07-06T09:23:15.537Z,8.17
2017-07-06T09:25:43.065Z,8.17
2017-07-06T09:28:10.650Z,7.30
2017-07-06T09:30:38.962Z,7.83
2017-07-06T09:33:06.728Z,7.53
2017-07-06T09:35:34.496Z,7.60
2017-07-06T09:38:02.094Z,7.70
2017-07-06T09:40:30.373Z,9.23
2017-07-06T09:42:57.955Z,8.20
2017-07-06T09:45:25.527Z,8.70
2017-07-06T09:47:53.081Z,10.30
2017-07-06T09:50:20.649Z,9.33
2017-07-06T09:52:48.173Z,9.27
2017-07-06T09:55:16.465Z,8.97
2017-07-06T09:57:44.253Z,8.17
2017-07-06T10:00:11.847Z,9.50
2017-07-06T10:02:40.136Z,9.07
2017-07-06T10:05:07.650Z,8.52
2017-07-06T10:07:35.181Z,7.55
2017-07-06T10:10:02.720Z,9.83
2017-07-06T10:12:30.262Z,8.67
2017-07-06T10:14:57.808Z,7.27
2017-07-06T10:17:25.635Z,7.27
2017-07-06T10:19:53.201Z,8.57
2017-07-06T10:22:20.739Z,7.73
2017-07-06T10:24:48.237Z,8.03
2017-07-06T10:27:15.742Z,8.27
2017-07-06T10:29:43.319Z,9.30
2017-07-06T10:32:10.841Z,7.80
2017-07-06T10:34:38.432Z,9.40
2017-07-06T10:37:05.949Z,7.62
2017-07-06T10:39:33.486Z,7.95
2017-07-06T10:42:02.049Z,8.05
2017-07-06T10:44:29.890Z,7.95
2017-07-06T10:46:57.406Z,8.07
2017-07-06T10:49:25.215Z,8.55
2017-07-06T10:51:52.747Z,8.00
2017-07-06T10:54:20.301Z,7.47
2017-07-06T10:56:47.837Z,8.13
2017-07-06T10:59:15.347Z,7.25
2017-07-06T11:01:42.885Z,8.07
2017-07-06T11:04:10.402Z,6.97
2017-07-06T11:06:38.935Z,7.60
2017-07-06T11:09:06.526Z,9.50
2017-07-06T11:11:34.092Z,9.05
2017-07-06T11:14:02.409Z,7.53
2017-07-06T11:16:30.957Z,8.48
2017-07-06T11:18:58.678Z,10.13
2017-07-06T11:21:26.218Z,8.40
2017-07-06T11:23:55.729Z,8.18
2017-07-06T11:26:23.338Z,9.20
2017-07-06T11:28:51.660Z,8.13
2017-07-06T11:31:19.202Z,7.40
2017-07-06T11:33:46.756Z,6.65
2017-07-06T11:36:14.333Z,6.80
2017-07-06T11:38:41.849Z,6.68
2017-07-06T11:41:09.393Z,7.60
2017-07-06T11:43:37.678Z,7.20
2017-07-06T11:46:05.498Z,7.25
2017-07-06T11:48:33.105Z,7.20
2017-07-06T11:51:00.699Z,8.27
2017-07-06T11:53:28.272Z,7.62
2017-07-06T11:55:56.025Z,7.43
2017-07-06T11:58:23.625Z,7.57
2017-07-06T12:00:51.955Z,9.02
2017-07-06T12:03:19.492Z,8.85
2017-07-06T12:05:47.276Z,6.60
2017-07-06T12:08:15.037Z,8.15
2017-07-06T12:10:42.641Z,5.53
2017-07-06T12:13:10.206Z,7.57
2017-07-06T12:15:38.529Z,7.57
2017-07-06T12:18:06.038Z,6.43
2017-07-06T12:20:33.602Z,6.70
2017-07-06T12:23:01.409Z,7.00
2017-07-06T12:25:29.175Z,6.45
2017-07-06T12:27:56.693Z,7.10
2017-07-06T12:30:24.265Z,6.45
2017-07-06T12:32:51.833Z,6.20
2017-07-06T12:35:19.363Z,6.10
2017-07-06T12:37:47.226Z,6.50
2017-07-06T12:40:14.738Z,7.32
2017-07-06T12:42:42.265Z,7.18
2017-07-06T12:45:10.045Z,6.35
2017-07-06T12:47:37.582Z,7.50
2017-07-06T12:50:05.398Z,7.05
2017-07-06T12:52:32.902Z,6.50
2017-07-06T12:55:00.530Z,6.65
2017-07-06T12:57:28.033Z,6.45
2017-07-06T12:59:55.608Z,6.37
2017-07-06T13:02:23.145Z,7.00
2017-07-06T13:04:50.672Z,6.87
2017-07-06T13:07:18.177Z,7.00
2017-07-06T13:09:45.794Z,7.22
2017-07-06T13:12:13.330Z,6.95
2017-07-06T13:14:40.892Z,5.45
2017-07-06T13:17:09.222Z,6.28
2017-07-06T13:19:37.691Z,6.57
2017-07-06T13:22:05.224Z,6.60
2017-07-06T13:24:32.963Z,5.68
2017-07-06T13:27:00.531Z,6.18
2017-07-06T13:29:28.062Z,5.43
2017-07-06T13:31:55.822Z,6.37
2017-07-06T13:34:24.137Z,5.40
2017-07-06T13:36:51.669Z,6.87
2017-07-06T13:39:20.034Z,6.47
2017-07-06T13:41:48.313Z,5.90
2017-07-06T13:44:16.670Z,5.50
2017-07-06T13:46:44.170Z,5.90
2017-07-06T13:49:11.726Z,5.40
2017-07-06T13:51:39.234Z,6.30
2017-07-06T13:54:06.768Z,5.60
2017-07-06T13:56:34.354Z,5.68
2017-07-06T13:59:02.666Z,5.80
2017-07-06T14:01:30.285Z,6.28
2017-07-06T14:03:57.839Z,7.23
2017-07-06T14:06:25.715Z,5.97
2017-07-06T14:08:53.302Z,6.60
2017-07-06T14:11:21.154Z,6.65
2017-07-06T14:13:48.666Z,6.60
2017-07-06T14:16:16.181Z,7.53
2017-07-06T14:18:43.798Z,8.85
2017-07-06T14:21:11.322Z,6.45
2017-07-06T14:23:38.852Z,6.22
2017-07-06T14:26:06.431Z,5.65
2017-07-06T14:28:34.397Z,6.53
2017-07-06T14:31:02.805Z,7.07
2017-07-06T14:33:30.371Z,6.70
2017-07-06T14:35:57.922Z,7.68
2017-07-06T14:38:25.489Z,7.10
2017-07-06T14:40:53.082Z,6.57
2017-07-06T14:43:20.610Z,6.18
2017-07-06T14:45:48.150Z,6.70
2017-07-06T14:48:15.694Z,7.07
2017-07-06T14:50:43.209Z,7.80
2017-07-06T14:53:11.845Z,6.40
2017-07-06T14:55:39.353Z,7.55
2017-07-06T14:58:06.961Z,5.53
2017-07-06T15:00:35.334Z,5.85
2017-07-06T15:03:03.536Z,5.90
2017-07-06T15:05:31.818Z,5.30
2017-07-06T15:07:59.323Z,6.68
2017-07-06T15:10:26.904Z,7.15
2017-07-06T15:12:54.610Z,6.75
2017-07-06T15:15:22.200Z,5.70
2017-07-06T15:17:52.364Z,5.90
2017-07-06T15:20:20.682Z,5.82
2017-07-06T15:22:48.574Z,5.95
2017-07-06T15:25:16.543Z,7.28
2017-07-06T15:27:44.106Z,7.82
2017-07-06T15:30:11.695Z,5.80
2017-07-06T15:32:40.002Z,6.00
2017-07-06T15:35:07.522Z,7.10
2017-07-06T15:37:36.186Z,7.70
2017-07-06T15:40:03.701Z,7.35
2017-07-06T15:42:31.305Z,6.65
2017-07-06T15:44:58.813Z,5.85
2017-07-06T15:47:26.600Z,6.75
2017-07-06T15:49:54.265Z,6.47
2017-07-06T15:52:21.775Z,7.15
2017-07-06T15:54:50.135Z,6.80
2017-07-06T15:57:18.490Z,5.72
2017-07-06T15:59:46.085Z,5.95
2017-07-06T16:02:13.658Z,6.30
2017-07-06T16:04:41.250Z,6.10
2017-07-06T16:07:09.009Z,6.10
2017-07-06T16:09:36.944Z,6.60
2017-07-06T16:12:04.504Z,5.95
2017-07-06T16:14:32.032Z,6.13
2017-07-06T16:17:00.677Z,5.45
2017-07-06T16:19:28.255Z,5.95
2017-07-06T16:21:55.785Z,5.50
2017-07-06T16:24:23.345Z,5.35
2017-07-06T16:26:50.918Z,6.15
2017-07-06T16:29:18.514Z,5.97
2017-07-06T16:31:46.267Z,6.50
2017-07-06T16:34:14.192Z,5.65
2017-07-06T16:36:41.901Z,6.12
2017-07-06T16:39:10.256Z,7.15
2017-07-06T16:41:37.806Z,7.10
2017-07-06T16:44:05.650Z,7.70
2017-07-06T16:46:33.339Z,7.40
2017-07-06T16:49:00.896Z,6.70
2017-07-06T16:51:28.728Z,8.98
2017-07-06T16:53:56.307Z,7.78
2017-07-06T16:56:23.817Z,7.45
2017-07-06T16:58:51.397Z,7.65
2017-07-06T17:01:18.933Z,8.88
2017-07-06T17:03:46.493Z,7.75
2017-07-06T17:06:14.220Z,9.30
2017-07-06T17:08:42.601Z,9.00
2017-07-06T17:11:10.110Z,9.57
2017-07-06T17:13:37.978Z,8.70
2017-07-06T17:16:05.509Z,9.85
2017-07-06T17:18:33.020Z,8.77
2017-07-06T17:21:00.621Z,10.68
2017-07-06T17:23:28.133Z,10.13
2017-07-06T17:25:55.743Z,10.52
2017-07-06T17:28:23.256Z,9.95
2017-07-06T17:30:50.821Z,8.00
2017-07-06T17:33:19.221Z,8.50
2017-07-06T17:35:46.736Z,9.52
2017-07-06T17:38:14.320Z,9.20
2017-07-06T17:40:42.668Z,9.52
2017-07-06T17:43:10.192Z,9.40
2017-07-06T17:45:37.696Z,8.85
2017-07-06T17:48:05.261Z,10.10
2017-07-06T17:50:33.798Z,10.93
2017-07-06T17:53:01.706Z,9.15
2017-07-06T17:55:30.265Z,7.45
2017-07-06T17:57:58.513Z,9.75
2017-07-06T18:00:26.225Z,9.43
2017-07-06T18:02:53.800Z,9.68
2017-07-06T18:05:21.332Z,9.63
2017-07-06T18:07:49.115Z,8.50
2017-07-06T18:10:16.812Z,8.60
2017-07-06T18:12:44.450Z,8.85
2017-07-06T18:15:11.978Z,10.85
2017-07-06T18:17:40.695Z,10.70
2017-07-06T18:20:08.201Z,10.75
2017-07-06T18:22:35.762Z,9.45
2017-07-06T18:25:03.446Z,10.85
2017-07-06T18:27:31.323Z,10.52
2017-07-06T18:29:59.337Z,9.80
2017-07-06T18:32:27.090Z,10.15
2017-07-06T18:34:54.681Z,11.00
2017-07-06T18:37:22.204Z,10.52
2017-07-06T18:39:49.743Z,10.73
2017-07-06T18:42:17.520Z,10.88
2017-07-06T18:44:46.742Z,11.15
2017-07-06T18:47:15.488Z,11.07
2017-07-06T18:49:45.932Z,11.27
2017-07-06T18:52:13.558Z,11.20
2017-07-06T18:54:41.137Z,10.25
2017-07-06T18:57:08.746Z,9.85
2017-07-06T18:59:38.134Z,10.50
2017-07-06T19:02:05.674Z,9.60
2017-07-06T19:04:33.347Z,9.55
2017-07-06T19:07:00.881Z,10.48
2017-07-06T19:09:28.524Z,11.02
2017-07-06T19:11:56.542Z,10.50
2017-07-06T19:14:24.046Z,10.23
2017-07-06T19:16:51.708Z,11.95
2017-07-06T19:19:19.640Z,10.50
2017-07-06T19:21:47.310Z,10.85
2017-07-06T19:24:15.522Z,10.95
2017-07-06T19:26:44.688Z,11.30
2017-07-06T19:29:13.444Z,10.50
2017-07-06T19:31:41.329Z,10.30
2017-07-06T19:34:09.331Z,10.10
2017-07-06T19:36:37.194Z,10.82
2017-07-06T19:39:04.961Z,10.75
2017-07-06T19:41:32.822Z,11.12
2017-07-06T19:44:00.380Z,11.75
2017-07-06T19:46:27.906Z,11.20
2017-07-06T19:48:55.526Z,11.43
2017-07-06T19:51:23.097Z,11.88
2017-07-06T19:53:51.709Z,10.40
2017-07-06T19:56:19.314Z,11.55
2017-07-06T19:58:46.881Z,11.95
2017-07-06T20:01:14.516Z,11.30
2017-07-06T20:03:42.046Z,10.90
2017-07-06T20:06:09.635Z,12.82
2017-07-06T20:08:37.166Z,11.57
2017-07-06T20:11:04.694Z,10.55
2017-07-06T20:13:33.266Z,12.00
2017-07-06T20:16:01.578Z,11.35
2017-07-06T20:18:29.101Z,13.30
2017-07-06T20:20:57.542Z,10.80
2017-07-06T20:23:25.082Z,12.65
2017-07-06T20:25:52.617Z,12.02
2017-07-06T20:28:20.205Z,11.50
2017-07-06T20:30:47.957Z,12.95
2017-07-06T20:33:15.498Z,12.80
2017-07-06T20:35:43.070Z,13.18
2017-07-06T20:38:10.621Z,12.50
2017-07-06T20:40:38.419Z,13.23
2017-07-06T20:43:09.810Z,13.43
2017-07-06T20:45:37.365Z,14.45
2017-07-06T20:48:04.941Z,16.83
2017-07-06T20:50:32.485Z,15.38
2017-07-06T20:53:00.101Z,16.12
2017-07-06T20:55:27.718Z,16.30
2017-07-06T20:57:55.429Z,17.80
2017-07-06T21:00:22.934Z,17.48
2017-07-06T21:02:50.711Z,17.90
2017-07-06T21:05:18.433Z,18.73
2017-07-06T21:07:46.466Z,16.05
2017-07-06T21:10:14.205Z,16.58
2017-07-06T21:12:41.821Z,16.25
2017-07-06T21:15:10.281Z,17.40
2017-07-06T21:17:38.029Z,15.98
2017-07-06T21:20:05.876Z,16.05
2017-07-06T21:22:33.573Z,16.40
2017-07-06T21:25:01.780Z,16.42
2017-07-06T21:27:29.445Z,15.30
2017-07-06T21:29:57.229Z,14.25
2017-07-06T21:32:24.841Z,14.80
2017-07-06T21:34:53.469Z,15.70
2017-07-06T21:37:21.345Z,16.48
2017-07-06T21:39:48.872Z,15.13
2017-07-06T21:42:18.037Z,14.40
2017-07-06T21:44:46.858Z,14.50
2017-07-06T21:47:14.364Z,14.35
2017-07-06T21:49:42.165Z,13.57
2017-07-06T21:52:09.793Z,13.48
2017-07-06T21:54:38.185Z,13.90
2017-07-06T21:57:06.463Z,12.85
2017-07-06T21:59:34.090Z,14.07
2017-07-06T22:02:01.592Z,13.85
2017-07-06T22:04:29.306Z,11.50
2017-07-06T22:06:56.979Z,5.57
2017-07-06T22:09:24.548Z,5.50
2017-07-06T22:11:53.032Z,7.03
2017-07-06T22:14:20.842Z,10.52
2017-07-06T22:16:48.390Z,14.85
2017-07-06T22:19:15.899Z,14.38
2017-07-06T22:21:44.438Z,12.90
2017-07-06T22:24:11.944Z,13.18
2017-07-06T22:26:40.673Z,13.27
2017-07-06T22:29:08.188Z,15.60
2017-07-06T22:31:35.698Z,17.05
2017-07-06T22:34:03.228Z,16.73
2017-07-06T22:36:30.732Z,16.87
2017-07-06T22:38:58.583Z,17.25
2017-07-06T22:41:26.105Z,17.90
2017-07-06T22:43:53.829Z,16.00
2017-07-06T22:46:22.113Z,14.73
2017-07-06T22:48:50.518Z,15.93
2017-07-06T22:51:18.450Z,13.00
2017-07-06T22:53:46.139Z,12.18
2017-07-06T22:56:13.698Z,10.93
2017-07-06T22:58:41.335Z,9.85
2017-07-06T23:01:09.862Z,10.45
2017-07-06T23:03:37.387Z,10.35
2017-07-06T23:06:04.990Z,10.70
2017-07-06T23:08:32.580Z,11.43
2017-07-06T23:11:00.099Z,10.30
2017-07-06T23:13:27.834Z,9.20
2017-07-06T23:15:55.425Z,10.10
2017-07-06T23:18:23.169Z,11.68
2017-07-06T23:20:50.677Z,12.60
2017-07-06T23:23:18.976Z,11.15
2017-07-06T23:25:46.764Z,12.70
2017-07-06T23:28:14.565Z,17.35
2017-07-06T23:30:43.211Z,17.15
2017-07-06T23:33:10.720Z,19.12
2017-07-06T23:35:38.486Z,23.83
2017-07-06T23:38:06.012Z,19.85
2017-07-06T23:40:33.558Z,21.27
2017-07-06T23:43:01.153Z,21.27
2017-07-06T23:45:29.477Z,21.17
2017-07-06T23:47:57.006Z,20.45
2017-07-06T23:50:24.793Z,21.75
2017-07-06T23:52:52.557Z,20.98
2017-07-06T23:55:20.142Z,21.50
2017-07-06T23:57:47.683Z,23.38
